sensor_id;sensor_type;location;lat;lon;timestamp;P1;durP1;ratioP1;P2;durP2;ratioP2
4182;SDS011;2105;52.300;9.182;2023-03-17T00:02:20;16.10;;;14.80;;
4182;SDS011;2105;52.300;9.182;2023-03-17T00:04:48;16.30;;;15.00;;
4182;SDS011;2105;52.300;9.182;2023-03-17T00:07:16;16.10;;;14.90;;
4182;SDS011;2105;52.300;9.182;2023-03-17T00:09:43;16.30;;;15.00;;
4182;SDS011;2105;52.300;9.182;2023-03-17T00:12:10;16.63;;;15.43;;
4182;SDS011;2105;52.300;9.182;2023-03-17T00:14:37;16.93;;;15.57;;
4182;SDS011;2105;52.300;9.182;2023-03-17T00:17:04;17.07;;;15.77;;
4182;SDS011;2105;52.300;9.182;2023-03-17T00:19:32;16.60;;;15.30;;
4182;SDS011;2105;52.300;9.182;2023-03-17T00:22:00;16.33;;;15.10;;
4182;SDS011;2105;52.300;9.182;2023-03-17T00:24:31;16.10;;;14.80;;
4182;SDS011;2105;52.300;9.182;2023-03-17T00:26:57;16.40;;;15.10;;
4182;SDS011;2105;52.300;9.182;2023-03-17T00:29:24;16.40;;;15.03;;
4182;SDS011;2105;52.300;9.182;2023-03-17T00:31:51;16.53;;;15.40;;
4182;SDS011;2105;52.300;9.182;2023-03-17T00:34:19;16.43;;;15.17;;
4182;SDS011;2105;52.300;9.182;2023-03-17T00:36:48;16.50;;;15.13;;
4182;SDS011;2105;52.300;9.182;2023-03-17T00:39:15;16.33;;;15.03;;
4182;SDS011;2105;52.300;9.182;2023-03-17T00:41:42;15.90;;;14.47;;
4182;SDS011;2105;52.300;9.182;2023-03-17T00:44:09;16.60;;;15.20;;
4182;SDS011;2105;52.300;9.182;2023-03-17T00:46:36;16.27;;;14.97;;
4182;SDS011;2105;52.300;9.182;2023-03-17T00:49:09;17.10;;;15.80;;
4182;SDS011;2105;52.300;9.182;2023-03-17T00:51:39;16.30;;;15.00;;
4182;SDS011;2105;52.300;9.182;2023-03-17T00:54:09;15.97;;;14.73;;
4182;SDS011;2105;52.300;9.182;2023-03-17T00:56:36;16.90;;;15.30;;
4182;SDS011;2105;52.300;9.182;2023-03-17T00:59:04;16.43;;;15.20;;
4182;SDS011;2105;52.300;9.182;2023-03-17T01:01:41;16.70;;;15.40;;
4182;SDS011;2105;52.300;9.182;2023-03-17T01:04:08;17.10;;;15.60;;
4182;SDS011;2105;52.300;9.182;2023-03-17T01:06:35;16.53;;;15.13;;
4182;SDS011;2105;52.300;9.182;2023-03-17T01:09:02;17.13;;;15.70;;
4182;SDS011;2105;52.300;9.182;2023-03-17T01:11:31;17.20;;;15.70;;
4182;SDS011;2105;52.300;9.182;2023-03-17T01:13:58;17.33;;;15.93;;
4182;SDS011;2105;52.300;9.182;2023-03-17T01:16:24;17.70;;;16.30;;
4182;SDS011;2105;52.300;9.182;2023-03-17T01:18:52;17.57;;;16.13;;
4182;SDS011;2105;52.300;9.182;2023-03-17T01:21:19;17.67;;;16.37;;
4182;SDS011;2105;52.300;9.182;2023-03-17T01:23:46;16.47;;;15.17;;
4182;SDS011;2105;52.300;9.182;2023-03-17T01:26:13;17.57;;;16.07;;
4182;SDS011;2105;52.300;9.182;2023-03-17T01:28:41;17.23;;;15.67;;
4182;SDS011;2105;52.300;9.182;2023-03-17T01:31:08;16.27;;;15.07;;
4182;SDS011;2105;52.300;9.182;2023-03-17T01:33:34;16.90;;;15.60;;
4182;SDS011;2105;52.300;9.182;2023-03-17T01:36:01;16.60;;;15.23;;
4182;SDS011;2105;52.300;9.182;2023-03-17T01:38:28;16.20;;;15.00;;
4182;SDS011;2105;52.300;9.182;2023-03-17T01:40:55;16.23;;;14.93;;
4182;SDS011;2105;52.300;9.182;2023-03-17T01:43:23;16.93;;;15.73;;
4182;SDS011;2105;52.300;9.182;2023-03-17T01:46:18;18.37;;;16.47;;
4182;SDS011;2105;52.300;9.182;2023-03-17T01:48:53;18.20;;;16.40;;
4182;SDS011;2105;52.300;9.182;2023-03-17T01:51:31;16.80;;;15.53;;
4182;SDS011;2105;52.300;9.182;2023-03-17T01:54:02;17.00;;;15.67;;
4182;SDS011;2105;52.300;9.182;2023-03-17T01:56:33;16.53;;;15.07;;
4182;SDS011;2105;52.300;9.182;2023-03-17T01:59:02;16.33;;;15.13;;
4182;SDS011;2105;52.300;9.182;2023-03-17T02:01:35;16.80;;;15.50;;
4182;SDS011;2105;52.300;9.182;2023-03-17T02:04:04;16.40;;;15.10;;
4182;SDS011;2105;52.300;9.182;2023-03-17T02:06:32;16.80;;;15.40;;
4182;SDS011;2105;52.300;9.182;2023-03-17T02:09:00;17.60;;;16.13;;
4182;SDS011;2105;52.300;9.182;2023-03-17T02:11:27;15.93;;;14.73;;
4182;SDS011;2105;52.300;9.182;2023-03-17T02:13:54;17.13;;;15.63;;
4182;SDS011;2105;52.300;9.182;2023-03-17T02:16:21;17.03;;;15.73;;
4182;SDS011;2105;52.300;9.182;2023-03-17T02:18:49;21.77;;;16.13;;
4182;SDS011;2105;52.300;9.182;2023-03-17T02:24:08;17.57;;;16.07;;
4182;SDS011;2105;52.300;9.182;2023-03-17T02:26:39;16.70;;;15.40;;
4182;SDS011;2105;52.300;9.182;2023-03-17T02:29:09;17.40;;;15.83;;
4182;SDS011;2105;52.300;9.182;2023-03-17T02:31:36;17.03;;;15.63;;
4182;SDS011;2105;52.300;9.182;2023-03-17T02:34:03;17.60;;;16.20;;
4182;SDS011;2105;52.300;9.182;2023-03-17T02:36:30;19.37;;;16.57;;
4182;SDS011;2105;52.300;9.182;2023-03-17T02:38:58;18.00;;;16.40;;
4182;SDS011;2105;52.300;9.182;2023-03-17T02:41:25;17.83;;;16.37;;
4182;SDS011;2105;52.300;9.182;2023-03-17T02:43:52;17.60;;;16.10;;
4182;SDS011;2105;52.300;9.182;2023-03-17T02:46:19;17.50;;;15.97;;
4182;SDS011;2105;52.300;9.182;2023-03-17T02:48:46;17.10;;;15.80;;
4182;SDS011;2105;52.300;9.182;2023-03-17T02:51:14;17.70;;;16.10;;
4182;SDS011;2105;52.300;9.182;2023-03-17T02:53:40;17.73;;;16.33;;
4182;SDS011;2105;52.300;9.182;2023-03-17T02:56:08;17.57;;;16.10;;
4182;SDS011;2105;52.300;9.182;2023-03-17T02:58:35;18.80;;;16.90;;
4182;SDS011;2105;52.300;9.182;2023-03-17T03:01:02;17.80;;;16.30;;
4182;SDS011;2105;52.300;9.182;2023-03-17T03:03:29;17.40;;;15.80;;
4182;SDS011;2105;52.300;9.182;2023-03-17T03:05:56;17.47;;;15.90;;
4182;SDS011;2105;52.300;9.182;2023-03-17T03:08:24;17.33;;;15.83;;
4182;SDS011;2105;52.300;9.182;2023-03-17T03:10:51;17.10;;;15.77;;
4182;SDS011;2105;52.300;9.182;2023-03-17T03:13:20;17.00;;;15.57;;
4182;SDS011;2105;52.300;9.182;2023-03-17T03:15:47;17.77;;;16.40;;
4182;SDS011;2105;52.300;9.182;2023-03-17T03:18:14;20.63;;;15.87;;
4182;SDS011;2105;52.300;9.182;2023-03-17T03:20:41;17.43;;;15.87;;
4182;SDS011;2105;52.300;9.182;2023-03-17T03:23:09;17.23;;;15.90;;
4182;SDS011;2105;52.300;9.182;2023-03-17T03:25:36;16.50;;;15.20;;
4182;SDS011;2105;52.300;9.182;2023-03-17T03:28:03;17.10;;;15.70;;
4182;SDS011;2105;52.300;9.182;2023-03-17T03:30:32;16.97;;;15.57;;
4182;SDS011;2105;52.300;9.182;2023-03-17T03:32:59;17.10;;;15.77;;
4182;SDS011;2105;52.300;9.182;2023-03-17T03:35:26;17.13;;;15.73;;
4182;SDS011;2105;52.300;9.182;2023-03-17T03:37:53;17.03;;;15.73;;
4182;SDS011;2105;52.300;9.182;2023-03-17T03:40:20;17.30;;;15.80;;
4182;SDS011;2105;52.300;9.182;2023-03-17T03:42:47;21.57;;;15.77;;
4182;SDS011;2105;52.300;9.182;2023-03-17T03:45:14;15.90;;;14.80;;
4182;SDS011;2105;52.300;9.182;2023-03-17T03:47:42;16.90;;;15.40;;
4182;SDS011;2105;52.300;9.182;2023-03-17T03:50:10;17.17;;;15.67;;
4182;SDS011;2105;52.300;9.182;2023-03-17T03:52:37;16.47;;;15.27;;
4182;SDS011;2105;52.300;9.182;2023-03-17T03:55:04;16.40;;;15.10;;
4182;SDS011;2105;52.300;9.182;2023-03-17T03:57:31;16.23;;;15.03;;
4182;SDS011;2105;52.300;9.182;2023-03-17T03:59:58;16.40;;;15.20;;
4182;SDS011;2105;52.300;9.182;2023-03-17T04:02:24;17.30;;;15.90;;
4182;SDS011;2105;52.300;9.182;2023-03-17T04:04:53;17.00;;;15.60;;
4182;SDS011;2105;52.300;9.182;2023-03-17T04:07:20;17.30;;;15.80;;
4182;SDS011;2105;52.300;9.182;2023-03-17T04:09:46;17.33;;;15.83;;
4182;SDS011;2105;52.300;9.182;2023-03-17T04:12:14;17.80;;;16.30;;
4182;SDS011;2105;52.300;9.182;2023-03-17T04:14:40;17.60;;;16.20;;
4182;SDS011;2105;52.300;9.182;2023-03-17T04:17:08;16.90;;;15.60;;
4182;SDS011;2105;52.300;9.182;2023-03-17T04:19:35;16.93;;;15.63;;
4182;SDS011;2105;52.300;9.182;2023-03-17T04:22:03;17.47;;;16.00;;
4182;SDS011;2105;52.300;9.182;2023-03-17T04:24:31;18.53;;;16.43;;
4182;SDS011;2105;52.300;9.182;2023-03-17T04:26:58;16.90;;;15.50;;
4182;SDS011;2105;52.300;9.182;2023-03-17T04:29:26;17.90;;;16.30;;
4182;SDS011;2105;52.300;9.182;2023-03-17T04:31:53;16.47;;;15.10;;
4182;SDS011;2105;52.300;9.182;2023-03-17T04:34:20;17.17;;;15.80;;
4182;SDS011;2105;52.300;9.182;2023-03-17T04:36:47;16.90;;;15.60;;
4182;SDS011;2105;52.300;9.182;2023-03-17T04:39:15;16.30;;;15.10;;
4182;SDS011;2105;52.300;9.182;2023-03-17T04:41:42;16.53;;;15.13;;
4182;SDS011;2105;52.300;9.182;2023-03-17T04:44:09;16.83;;;15.43;;
4182;SDS011;2105;52.300;9.182;2023-03-17T04:46:35;16.70;;;15.40;;
4182;SDS011;2105;52.300;9.182;2023-03-17T04:49:02;16.13;;;14.83;;
4182;SDS011;2105;52.300;9.182;2023-03-17T04:51:29;16.37;;;15.17;;
4182;SDS011;2105;52.300;9.182;2023-03-17T04:53:56;17.87;;;15.80;;
4182;SDS011;2105;52.300;9.182;2023-03-17T04:56:24;16.87;;;15.53;;
4182;SDS011;2105;52.300;9.182;2023-03-17T04:58:50;17.47;;;16.07;;
4182;SDS011;2105;52.300;9.182;2023-03-17T05:01:17;16.87;;;15.50;;
4182;SDS011;2105;52.300;9.182;2023-03-17T05:03:45;17.20;;;15.90;;
4182;SDS011;2105;52.300;9.182;2023-03-17T05:06:12;18.27;;;16.07;;
4182;SDS011;2105;52.300;9.182;2023-03-17T05:08:38;17.47;;;16.07;;
4182;SDS011;2105;52.300;9.182;2023-03-17T05:11:07;19.53;;;17.63;;
4182;SDS011;2105;52.300;9.182;2023-03-17T05:13:36;18.03;;;16.53;;
4182;SDS011;2105;52.300;9.182;2023-03-17T05:16:05;18.00;;;16.33;;
4182;SDS011;2105;52.300;9.182;2023-03-17T05:18:32;17.13;;;15.63;;
4182;SDS011;2105;52.300;9.182;2023-03-17T05:21:00;18.07;;;16.57;;
4182;SDS011;2105;52.300;9.182;2023-03-17T05:23:27;17.47;;;15.80;;
4182;SDS011;2105;52.300;9.182;2023-03-17T05:25:54;17.23;;;15.83;;
4182;SDS011;2105;52.300;9.182;2023-03-17T05:28:21;16.83;;;15.63;;
4182;SDS011;2105;52.300;9.182;2023-03-17T05:30:50;17.30;;;15.70;;
4182;SDS011;2105;52.300;9.182;2023-03-17T05:33:16;16.70;;;15.23;;
4182;SDS011;2105;52.300;9.182;2023-03-17T05:35:44;16.30;;;15.10;;
4182;SDS011;2105;52.300;9.182;2023-03-17T05:38:11;16.90;;;15.23;;
4182;SDS011;2105;52.300;9.182;2023-03-17T05:40:39;16.73;;;15.43;;
4182;SDS011;2105;52.300;9.182;2023-03-17T05:43:06;17.40;;;16.00;;
4182;SDS011;2105;52.300;9.182;2023-03-17T05:45:33;17.83;;;16.20;;
4182;SDS011;2105;52.300;9.182;2023-03-17T05:48:01;17.13;;;15.73;;
4182;SDS011;2105;52.300;9.182;2023-03-17T05:50:28;18.00;;;16.33;;
4182;SDS011;2105;52.300;9.182;2023-03-17T05:52:56;16.70;;;15.50;;
4182;SDS011;2105;52.300;9.182;2023-03-17T05:55:22;17.20;;;15.90;;
4182;SDS011;2105;52.300;9.182;2023-03-17T05:57:49;18.00;;;16.50;;
4182;SDS011;2105;52.300;9.182;2023-03-17T06:00:16;16.67;;;15.27;;
4182;SDS011;2105;52.300;9.182;2023-03-17T06:02:45;17.43;;;15.93;;
4182;SDS011;2105;52.300;9.182;2023-03-17T06:05:13;17.53;;;16.03;;
4182;SDS011;2105;52.300;9.182;2023-03-17T06:07:40;17.27;;;15.87;;
4182;SDS011;2105;52.300;9.182;2023-03-17T06:10:07;17.47;;;15.80;;
4182;SDS011;2105;52.300;9.182;2023-03-17T06:12:35;17.80;;;16.20;;
4182;SDS011;2105;52.300;9.182;2023-03-17T06:15:02;18.67;;;16.70;;
4182;SDS011;2105;52.300;9.182;2023-03-17T06:17:30;17.70;;;16.30;;
4182;SDS011;2105;52.300;9.182;2023-03-17T06:19:57;17.43;;;15.93;;
4182;SDS011;2105;52.300;9.182;2023-03-17T06:22:25;18.00;;;16.53;;
4182;SDS011;2105;52.300;9.182;2023-03-17T06:24:51;17.90;;;16.40;;
4182;SDS011;2105;52.300;9.182;2023-03-17T06:27:18;17.13;;;15.83;;
4182;SDS011;2105;52.300;9.182;2023-03-17T06:29:45;17.87;;;16.30;;
4182;SDS011;2105;52.300;9.182;2023-03-17T06:32:11;17.73;;;16.23;;
4182;SDS011;2105;52.300;9.182;2023-03-17T06:34:38;17.67;;;16.27;;
4182;SDS011;2105;52.300;9.182;2023-03-17T06:37:05;17.90;;;16.30;;
4182;SDS011;2105;52.300;9.182;2023-03-17T06:39:33;17.90;;;16.30;;
4182;SDS011;2105;52.300;9.182;2023-03-17T06:42:01;17.47;;;15.93;;
4182;SDS011;2105;52.300;9.182;2023-03-17T06:44:28;17.30;;;15.90;;
4182;SDS011;2105;52.300;9.182;2023-03-17T06:46:55;16.90;;;15.60;;
4182;SDS011;2105;52.300;9.182;2023-03-17T06:49:22;16.70;;;15.40;;
4182;SDS011;2105;52.300;9.182;2023-03-17T06:51:48;17.03;;;15.70;;
4182;SDS011;2105;52.300;9.182;2023-03-17T06:54:15;17.20;;;15.60;;
4182;SDS011;2105;52.300;9.182;2023-03-17T06:56:44;17.40;;;16.10;;
4182;SDS011;2105;52.300;9.182;2023-03-17T06:59:11;19.10;;;17.20;;
4182;SDS011;2105;52.300;9.182;2023-03-17T07:01:38;17.60;;;16.10;;
4182;SDS011;2105;52.300;9.182;2023-03-17T07:04:05;17.87;;;16.17;;
4182;SDS011;2105;52.300;9.182;2023-03-17T07:06:31;17.20;;;15.70;;
4182;SDS011;2105;52.300;9.182;2023-03-17T07:08:59;17.70;;;16.13;;
4182;SDS011;2105;52.300;9.182;2023-03-17T07:11:26;17.00;;;15.70;;
4182;SDS011;2105;52.300;9.182;2023-03-17T07:13:56;18.20;;;16.70;;
4182;SDS011;2105;52.300;9.182;2023-03-17T07:16:22;17.47;;;15.97;;
4182;SDS011;2105;52.300;9.182;2023-03-17T07:18:49;17.77;;;16.17;;
4182;SDS011;2105;52.300;9.182;2023-03-17T07:21:16;17.60;;;16.10;;
4182;SDS011;2105;52.300;9.182;2023-03-17T07:23:43;17.57;;;16.17;;
4182;SDS011;2105;52.300;9.182;2023-03-17T07:26:09;17.73;;;16.33;;
4182;SDS011;2105;52.300;9.182;2023-03-17T07:28:36;17.87;;;16.40;;
4182;SDS011;2105;52.300;9.182;2023-03-17T07:31:05;18.37;;;16.40;;
4182;SDS011;2105;52.300;9.182;2023-03-17T07:33:33;18.10;;;16.60;;
4182;SDS011;2105;52.300;9.182;2023-03-17T07:36:00;18.20;;;16.60;;
4182;SDS011;2105;52.300;9.182;2023-03-17T07:38:27;17.20;;;15.90;;
4182;SDS011;2105;52.300;9.182;2023-03-17T07:40:53;17.53;;;16.00;;
4182;SDS011;2105;52.300;9.182;2023-03-17T07:43:20;16.80;;;15.50;;
4182;SDS011;2105;52.300;9.182;2023-03-17T07:45:47;16.70;;;15.30;;
4182;SDS011;2105;52.300;9.182;2023-03-17T07:48:16;17.47;;;15.90;;
4182;SDS011;2105;52.300;9.182;2023-03-17T07:50:43;16.30;;;15.03;;
4182;SDS011;2105;52.300;9.182;2023-03-17T07:53:10;17.80;;;16.37;;
4182;SDS011;2105;52.300;9.182;2023-03-17T07:55:37;17.93;;;16.33;;
4182;SDS011;2105;52.300;9.182;2023-03-17T07:58:04;17.80;;;16.17;;
4182;SDS011;2105;52.300;9.182;2023-03-17T08:00:31;17.37;;;15.97;;
4182;SDS011;2105;52.300;9.182;2023-03-17T08:02:58;16.87;;;15.50;;
4182;SDS011;2105;52.300;9.182;2023-03-17T08:05:26;17.23;;;15.93;;
4182;SDS011;2105;52.300;9.182;2023-03-17T08:07:53;17.60;;;16.00;;
4182;SDS011;2105;52.300;9.182;2023-03-17T08:10:19;17.47;;;15.87;;
4182;SDS011;2105;52.300;9.182;2023-03-17T08:12:46;17.60;;;16.13;;
4182;SDS011;2105;52.300;9.182;2023-03-17T08:15:16;18.30;;;16.80;;
4182;SDS011;2105;52.300;9.182;2023-03-17T08:17:43;17.87;;;16.47;;
4182;SDS011;2105;52.300;9.182;2023-03-17T08:20:10;18.77;;;17.27;;
4182;SDS011;2105;52.300;9.182;2023-03-17T08:22:39;17.30;;;15.90;;
4182;SDS011;2105;52.300;9.182;2023-03-17T08:25:06;18.63;;;17.10;;
4182;SDS011;2105;52.300;9.182;2023-03-17T08:27:35;18.20;;;16.60;;
4182;SDS011;2105;52.300;9.182;2023-03-17T08:30:02;18.57;;;16.93;;
4182;SDS011;2105;52.300;9.182;2023-03-17T08:32:30;17.30;;;15.80;;
4182;SDS011;2105;52.300;9.182;2023-03-17T08:34:57;17.90;;;16.40;;
4182;SDS011;2105;52.300;9.182;2023-03-17T08:37:24;17.63;;;16.23;;
4182;SDS011;2105;52.300;9.182;2023-03-17T08:39:52;17.97;;;16.57;;
4182;SDS011;2105;52.300;9.182;2023-03-17T08:42:19;17.17;;;15.87;;
4182;SDS011;2105;52.300;9.182;2023-03-17T08:44:46;17.30;;;15.60;;
4182;SDS011;2105;52.300;9.182;2023-03-17T08:47:12;17.07;;;15.37;;
4182;SDS011;2105;52.300;9.182;2023-03-17T08:49:40;17.07;;;15.70;;
4182;SDS011;2105;52.300;9.182;2023-03-17T08:52:07;18.00;;;16.60;;
4182;SDS011;2105;52.300;9.182;2023-03-17T08:54:35;17.67;;;16.23;;
4182;SDS011;2105;52.300;9.182;2023-03-17T08:57:03;17.67;;;16.20;;
4182;SDS011;2105;52.300;9.182;2023-03-17T08:59:29;17.33;;;15.60;;
4182;SDS011;2105;52.300;9.182;2023-03-17T09:01:56;17.27;;;15.87;;
4182;SDS011;2105;52.300;9.182;2023-03-17T09:04:23;18.67;;;16.97;;
4182;SDS011;2105;52.300;9.182;2023-03-17T09:06:50;18.00;;;16.40;;
4182;SDS011;2105;52.300;9.182;2023-03-17T09:09:18;18.20;;;16.63;;
4182;SDS011;2105;52.300;9.182;2023-03-17T09:11:45;16.63;;;15.33;;
4182;SDS011;2105;52.300;9.182;2023-03-17T09:14:13;17.67;;;16.07;;
4182;SDS011;2105;52.300;9.182;2023-03-17T09:16:40;17.57;;;16.17;;
4182;SDS011;2105;52.300;9.182;2023-03-17T09:19:06;17.90;;;16.50;;
4182;SDS011;2105;52.300;9.182;2023-03-17T09:21:33;18.73;;;17.07;;
4182;SDS011;2105;52.300;9.182;2023-03-17T09:24:00;18.43;;;16.77;;
4182;SDS011;2105;52.300;9.182;2023-03-17T09:26:27;17.87;;;16.47;;
4182;SDS011;2105;52.300;9.182;2023-03-17T09:28:53;17.30;;;15.87;;
4182;SDS011;2105;52.300;9.182;2023-03-17T09:31:22;17.67;;;16.07;;
4182;SDS011;2105;52.300;9.182;2023-03-17T09:33:49;17.37;;;15.77;;
4182;SDS011;2105;52.300;9.182;2023-03-17T09:36:16;17.53;;;16.13;;
4182;SDS011;2105;52.300;9.182;2023-03-17T09:38:43;17.83;;;16.33;;
4182;SDS011;2105;52.300;9.182;2023-03-17T09:41:16;18.17;;;16.57;;
4182;SDS011;2105;52.300;9.182;2023-03-17T09:43:57;17.50;;;16.00;;
4182;SDS011;2105;52.300;9.182;2023-03-17T09:46:36;17.70;;;16.30;;
4182;SDS011;2105;52.300;9.182;2023-03-17T09:49:10;17.40;;;16.10;;
4182;SDS011;2105;52.300;9.182;2023-03-17T09:51:39;17.30;;;15.83;;
4182;SDS011;2105;52.300;9.182;2023-03-17T09:54:10;17.93;;;16.53;;
4182;SDS011;2105;52.300;9.182;2023-03-17T09:56:39;18.10;;;16.60;;
4182;SDS011;2105;52.300;9.182;2023-03-17T09:59:17;18.30;;;16.80;;
4182;SDS011;2105;52.300;9.182;2023-03-17T10:01:54;18.13;;;16.63;;
4182;SDS011;2105;52.300;9.182;2023-03-17T10:04:21;18.20;;;16.50;;
4182;SDS011;2105;52.300;9.182;2023-03-17T10:06:49;16.80;;;15.50;;
4182;SDS011;2105;52.300;9.182;2023-03-17T10:09:19;17.23;;;15.93;;
4182;SDS011;2105;52.300;9.182;2023-03-17T10:11:52;16.20;;;15.00;;
4182;SDS011;2105;52.300;9.182;2023-03-17T10:14:32;17.80;;;16.30;;
4182;SDS011;2105;52.300;9.182;2023-03-17T10:17:11;18.43;;;16.63;;
4182;SDS011;2105;52.300;9.182;2023-03-17T10:19:41;18.43;;;16.83;;
4182;SDS011;2105;52.300;9.182;2023-03-17T10:22:13;18.07;;;16.70;;
4182;SDS011;2105;52.300;9.182;2023-03-17T10:24:46;17.87;;;16.37;;
4182;SDS011;2105;52.300;9.182;2023-03-17T10:27:15;17.57;;;16.17;;
4182;SDS011;2105;52.300;9.182;2023-03-17T10:29:43;18.40;;;16.60;;
4182;SDS011;2105;52.300;9.182;2023-03-17T10:32:12;18.50;;;16.67;;
4182;SDS011;2105;52.300;9.182;2023-03-17T10:34:40;18.30;;;16.57;;
4182;SDS011;2105;52.300;9.182;2023-03-17T10:37:08;17.63;;;16.20;;
4182;SDS011;2105;52.300;9.182;2023-03-17T10:39:43;17.50;;;16.00;;
4182;SDS011;2105;52.300;9.182;2023-03-17T10:42:18;18.03;;;16.33;;
4182;SDS011;2105;52.300;9.182;2023-03-17T10:44:49;18.70;;;16.80;;
4182;SDS011;2105;52.300;9.182;2023-03-17T10:47:21;17.77;;;16.37;;
4182;SDS011;2105;52.300;9.182;2023-03-17T10:49:50;18.20;;;16.60;;
4182;SDS011;2105;52.300;9.182;2023-03-17T10:52:18;18.80;;;17.20;;
4182;SDS011;2105;52.300;9.182;2023-03-17T10:54:47;18.93;;;17.30;;
4182;SDS011;2105;52.300;9.182;2023-03-17T10:57:16;19.50;;;17.80;;
4182;SDS011;2105;52.300;9.182;2023-03-17T10:59:47;18.90;;;17.30;;
4182;SDS011;2105;52.300;9.182;2023-03-17T11:02:18;19.27;;;17.47;;
4182;SDS011;2105;52.300;9.182;2023-03-17T11:04:49;18.50;;;16.80;;
4182;SDS011;2105;52.300;9.182;2023-03-17T11:07:20;18.50;;;16.80;;
4182;SDS011;2105;52.300;9.182;2023-03-17T11:09:56;18.60;;;17.00;;
4182;SDS011;2105;52.300;9.182;2023-03-17T11:12:24;17.80;;;16.20;;
4182;SDS011;2105;52.300;9.182;2023-03-17T11:14:57;18.60;;;17.00;;
4182;SDS011;2105;52.300;9.182;2023-03-17T11:17:32;18.30;;;16.80;;
4182;SDS011;2105;52.300;9.182;2023-03-17T11:20:10;17.53;;;16.03;;
4182;SDS011;2105;52.300;9.182;2023-03-17T11:22:51;18.00;;;16.50;;
4182;SDS011;2105;52.300;9.182;2023-03-17T11:25:22;19.00;;;17.10;;
4182;SDS011;2105;52.300;9.182;2023-03-17T11:27:52;18.33;;;16.83;;
4182;SDS011;2105;52.300;9.182;2023-03-17T11:30:26;18.30;;;16.80;;
4182;SDS011;2105;52.300;9.182;2023-03-17T11:32:58;18.67;;;16.97;;
4182;SDS011;2105;52.300;9.182;2023-03-17T11:35:45;18.93;;;17.23;;
4182;SDS011;2105;52.300;9.182;2023-03-17T11:38:18;18.27;;;16.70;;
4182;SDS011;2105;52.300;9.182;2023-03-17T11:43:51;19.30;;;17.50;;
4182;SDS011;2105;52.300;9.182;2023-03-17T11:46:35;18.63;;;17.07;;
4182;SDS011;2105;52.300;9.182;2023-03-17T11:49:11;18.67;;;17.17;;
4182;SDS011;2105;52.300;9.182;2023-03-17T11:51:46;17.67;;;16.27;;
4182;SDS011;2105;52.300;9.182;2023-03-17T11:54:22;18.10;;;16.70;;
4182;SDS011;2105;52.300;9.182;2023-03-17T11:57:01;18.50;;;16.90;;
4182;SDS011;2105;52.300;9.182;2023-03-17T11:59:32;18.70;;;17.20;;
4182;SDS011;2105;52.300;9.182;2023-03-17T12:02:05;18.90;;;17.07;;
4182;SDS011;2105;52.300;9.182;2023-03-17T12:04:46;18.03;;;16.53;;
4182;SDS011;2105;52.300;9.182;2023-03-17T12:07:18;17.80;;;16.33;;
4182;SDS011;2105;52.300;9.182;2023-03-17T12:09:49;18.90;;;17.00;;
4182;SDS011;2105;52.300;9.182;2023-03-17T12:12:25;18.20;;;16.53;;
4182;SDS011;2105;52.300;9.182;2023-03-17T12:14:56;18.27;;;16.67;;
4182;SDS011;2105;52.300;9.182;2023-03-17T12:17:27;18.33;;;16.43;;
4182;SDS011;2105;52.300;9.182;2023-03-17T12:20:05;18.50;;;16.90;;
4182;SDS011;2105;52.300;9.182;2023-03-17T12:22:41;20.70;;;18.70;;
4182;SDS011;2105;52.300;9.182;2023-03-17T12:25:14;18.43;;;16.77;;
4182;SDS011;2105;52.300;9.182;2023-03-17T12:27:47;18.30;;;16.70;;
4182;SDS011;2105;52.300;9.182;2023-03-17T12:30:21;18.20;;;16.70;;
4182;SDS011;2105;52.300;9.182;2023-03-17T12:32:54;18.07;;;16.47;;
4182;SDS011;2105;52.300;9.182;2023-03-17T12:35:27;18.30;;;16.50;;
4182;SDS011;2105;52.300;9.182;2023-03-17T12:37:57;18.40;;;16.70;;
4182;SDS011;2105;52.300;9.182;2023-03-17T12:40:26;18.17;;;16.57;;
4182;SDS011;2105;52.300;9.182;2023-03-17T12:43:00;17.80;;;16.40;;
4182;SDS011;2105;52.300;9.182;2023-03-17T12:45:49;17.70;;;16.33;;
4182;SDS011;2105;52.300;9.182;2023-03-17T12:48:31;18.63;;;17.00;;
4182;SDS011;2105;52.300;9.182;2023-03-17T12:54:11;17.70;;;16.30;;
4182;SDS011;2105;52.300;9.182;2023-03-17T12:56:42;17.87;;;16.33;;
4182;SDS011;2105;52.300;9.182;2023-03-17T12:59:13;17.40;;;16.00;;
4182;SDS011;2105;52.300;9.182;2023-03-17T13:01:43;17.97;;;16.40;;
4182;SDS011;2105;52.300;9.182;2023-03-17T13:04:16;18.43;;;16.83;;
4182;SDS011;2105;52.300;9.182;2023-03-17T13:06:54;17.80;;;16.20;;
4182;SDS011;2105;52.300;9.182;2023-03-17T13:09:26;17.47;;;15.70;;
4182;SDS011;2105;52.300;9.182;2023-03-17T13:21:26;17.30;;;16.00;;
4182;SDS011;2105;52.300;9.182;2023-03-17T13:24:00;17.70;;;16.10;;
4182;SDS011;2105;52.300;9.182;2023-03-17T13:26:48;17.60;;;16.10;;
4182;SDS011;2105;52.300;9.182;2023-03-17T13:29:25;16.63;;;15.43;;
4182;SDS011;2105;52.300;9.182;2023-03-17T13:35:09;17.50;;;16.00;;
4182;SDS011;2105;52.300;9.182;2023-03-17T13:37:57;17.60;;;16.20;;
4182;SDS011;2105;52.300;9.182;2023-03-17T13:40:47;17.20;;;15.80;;
4182;SDS011;2105;52.300;9.182;2023-03-17T13:43:29;17.83;;;16.17;;
4182;SDS011;2105;52.300;9.182;2023-03-17T13:46:18;16.93;;;15.63;;
4182;SDS011;2105;52.300;9.182;2023-03-17T13:48:48;16.93;;;15.73;;
4182;SDS011;2105;52.300;9.182;2023-03-17T13:51:18;16.90;;;15.40;;
4182;SDS011;2105;52.300;9.182;2023-03-17T13:53:48;17.23;;;15.83;;
4182;SDS011;2105;52.300;9.182;2023-03-17T13:56:22;17.00;;;15.70;;
4182;SDS011;2105;52.300;9.182;2023-03-17T13:58:56;17.00;;;15.37;;
4182;SDS011;2105;52.300;9.182;2023-03-17T14:09:20;18.40;;;16.80;;
4182;SDS011;2105;52.300;9.182;2023-03-17T14:11:56;17.90;;;16.20;;
4182;SDS011;2105;52.300;9.182;2023-03-17T14:14:27;17.20;;;15.80;;
4182;SDS011;2105;52.300;9.182;2023-03-17T14:17:03;17.10;;;15.67;;
4182;SDS011;2105;52.300;9.182;2023-03-17T14:19:37;17.23;;;15.93;;
4182;SDS011;2105;52.300;9.182;2023-03-17T14:22:17;17.40;;;16.00;;
4182;SDS011;2105;52.300;9.182;2023-03-17T14:24:50;18.60;;;17.00;;
4182;SDS011;2105;52.300;9.182;2023-03-17T14:27:18;18.60;;;16.90;;
4182;SDS011;2105;52.300;9.182;2023-03-17T14:29:47;19.10;;;17.37;;
4182;SDS011;2105;52.300;9.182;2023-03-17T14:32:16;22.30;;;16.47;;
4182;SDS011;2105;52.300;9.182;2023-03-17T14:34:45;17.70;;;16.30;;
4182;SDS011;2105;52.300;9.182;2023-03-17T14:37:17;18.43;;;17.00;;
4182;SDS011;2105;52.300;9.182;2023-03-17T14:39:44;18.50;;;17.00;;
4182;SDS011;2105;52.300;9.182;2023-03-17T14:42:14;18.80;;;17.10;;
4182;SDS011;2105;52.300;9.182;2023-03-17T14:44:43;18.00;;;16.47;;
4182;SDS011;2105;52.300;9.182;2023-03-17T14:47:13;19.40;;;17.63;;
4182;SDS011;2105;52.300;9.182;2023-03-17T14:49:44;17.00;;;15.70;;
4182;SDS011;2105;52.300;9.182;2023-03-17T14:52:16;19.07;;;17.10;;
4182;SDS011;2105;52.300;9.182;2023-03-17T14:54:47;16.90;;;15.60;;
4182;SDS011;2105;52.300;9.182;2023-03-17T14:57:17;17.50;;;15.90;;
4182;SDS011;2105;52.300;9.182;2023-03-17T14:59:54;17.50;;;15.93;;
4182;SDS011;2105;52.300;9.182;2023-03-17T15:02:26;17.67;;;16.23;;
4182;SDS011;2105;52.300;9.182;2023-03-17T15:04:56;16.33;;;15.13;;
4182;SDS011;2105;52.300;9.182;2023-03-17T15:07:29;17.27;;;15.70;;
4182;SDS011;2105;52.300;9.182;2023-03-17T15:10:00;17.17;;;15.50;;
4182;SDS011;2105;52.300;9.182;2023-03-17T15:12:30;16.67;;;15.37;;
4182;SDS011;2105;52.300;9.182;2023-03-17T15:14:57;16.80;;;15.50;;
4182;SDS011;2105;52.300;9.182;2023-03-17T15:17:28;16.40;;;15.10;;
4182;SDS011;2105;52.300;9.182;2023-03-17T15:19:59;16.33;;;14.93;;
4182;SDS011;2105;52.300;9.182;2023-03-17T15:22:29;16.00;;;14.80;;
4182;SDS011;2105;52.300;9.182;2023-03-17T15:24:57;19.93;;;15.40;;
4182;SDS011;2105;52.300;9.182;2023-03-17T15:27:26;16.93;;;15.63;;
4182;SDS011;2105;52.300;9.182;2023-03-17T15:29:55;16.77;;;15.43;;
4182;SDS011;2105;52.300;9.182;2023-03-17T15:32:23;16.50;;;15.20;;